createdAt,value
2022-10-14T00:01:17.137Z,31.00
2022-10-14T00:03:44.585Z,33.50
2022-10-14T00:06:16.102Z,27.38
2022-10-14T00:08:44.285Z,29.55
2022-10-14T00:11:33.727Z,31.95
2022-10-14T00:14:04.359Z,30.58
2022-10-14T00:16:34.651Z,29.02
2022-10-14T00:19:01.496Z,25.33
2022-10-14T00:23:57.176Z,27.10
2022-10-14T00:26:27.131Z,32.78
2022-10-14T00:28:55.567Z,26.25
2022-10-14T00:31:23.184Z,32.85
2022-10-14T00:33:50.273Z,30.73
2022-10-14T00:36:20.019Z,29.85
2022-10-14T00:38:48.120Z,31.05
2022-10-14T00:41:18.088Z,29.55
2022-10-14T00:44:02.621Z,27.92
2022-10-14T00:46:37.167Z,35.72
2022-10-14T00:49:15.639Z,29.50
2022-10-14T00:51:47.208Z,27.30
2022-10-14T00:54:16.353Z,30.40
2022-10-14T00:56:45.634Z,35.60
2022-10-14T00:59:12.650Z,30.60
2022-10-14T01:01:39.571Z,34.13
2022-10-14T01:04:06.359Z,23.70
2022-10-14T01:09:18.023Z,25.52
2022-10-14T01:12:27.666Z,33.72
2022-10-14T01:15:05.456Z,28.33
2022-10-14T01:17:57.024Z,32.97
2022-10-14T01:20:33.465Z,26.50
2022-10-14T01:23:15.124Z,33.28
2022-10-14T01:26:08.416Z,26.02
2022-10-14T01:28:57.833Z,28.33
2022-10-14T01:31:30.754Z,31.95
2022-10-14T01:33:59.979Z,27.75
2022-10-14T01:36:34.077Z,24.58
2022-10-14T01:39:14.889Z,28.52
2022-10-14T01:41:50.852Z,28.13
2022-10-14T01:44:22.624Z,30.15
2022-10-14T01:46:54.469Z,29.40
2022-10-14T01:49:44.058Z,30.40
2022-10-14T01:52:21.078Z,28.75
2022-10-14T01:54:52.651Z,32.17
2022-10-14T01:57:24.424Z,27.33
2022-10-14T01:59:53.249Z,32.25
2022-10-14T02:02:23.847Z,23.70
2022-10-14T02:04:50.977Z,29.40
2022-10-14T02:10:00.531Z,25.02
2022-10-14T02:12:28.260Z,24.67
2022-10-14T02:15:17.066Z,19.13
2022-10-14T02:17:52.333Z,26.77
2022-10-14T02:20:31.215Z,22.35
2022-10-14T02:23:08.776Z,27.58
2022-10-14T02:25:39.247Z,28.65
2022-10-14T02:28:10.951Z,23.60
2022-10-14T02:30:41.371Z,29.15
2022-10-14T02:33:08.682Z,31.23
2022-10-14T02:35:38.709Z,27.08
2022-10-14T02:38:07.972Z,28.63
2022-10-14T02:40:42.075Z,28.08
2022-10-14T02:43:10.769Z,33.63
2022-10-14T02:45:39.232Z,24.10
2022-10-14T02:48:06.580Z,25.60
2022-10-14T02:50:33.903Z,29.60
2022-10-14T02:53:00.937Z,21.38
2022-10-14T02:55:28.109Z,29.40
2022-10-14T02:57:55.134Z,23.58
2022-10-14T03:00:22.049Z,27.40
2022-10-14T03:02:53.591Z,26.83
2022-10-14T03:05:20.922Z,21.30
2022-10-14T03:10:18.040Z,24.88
2022-10-14T03:12:44.975Z,22.40
2022-10-14T03:15:21.844Z,29.23
2022-10-14T03:17:50.326Z,20.33
2022-10-14T03:20:22.194Z,28.02
2022-10-14T03:22:59.913Z,23.98
2022-10-14T03:25:29.120Z,22.52
2022-10-14T03:28:04.183Z,23.88
2022-10-14T03:30:43.986Z,22.50
2022-10-14T03:33:20.723Z,24.10
2022-10-14T03:36:12.743Z,23.95
2022-10-14T03:38:48.287Z,28.20
2022-10-14T03:41:33.137Z,17.92
2022-10-14T03:44:05.545Z,21.90
2022-10-14T03:46:36.823Z,23.00
2022-10-14T03:49:05.814Z,18.77
2022-10-14T03:51:34.035Z,25.88
2022-10-14T03:54:10.060Z,25.52
2022-10-14T03:56:38.090Z,21.17
2022-10-14T03:59:05.107Z,32.05
2022-10-14T04:01:33.950Z,23.42
2022-10-14T04:04:17.355Z,26.50
2022-10-14T04:06:50.694Z,22.75
2022-10-14T04:09:25.050Z,39.47
2022-10-14T04:11:52.287Z,20.70
2022-10-14T04:14:37.778Z,26.48
2022-10-14T04:17:06.326Z,27.02
2022-10-14T04:22:01.789Z,17.85
2022-10-14T04:26:58.892Z,19.77
2022-10-14T04:29:40.875Z,31.45
2022-10-14T04:32:15.578Z,26.92
2022-10-14T04:34:42.866Z,19.27
2022-10-14T04:37:14.462Z,24.08
2022-10-14T04:40:08.453Z,25.13
2022-10-14T04:42:42.048Z,27.02
2022-10-14T04:45:17.769Z,26.65
2022-10-14T04:47:52.011Z,22.50
2022-10-14T04:50:22.239Z,19.52
2022-10-14T04:53:13.129Z,24.77
2022-10-14T04:55:51.830Z,26.75
2022-10-14T04:58:18.986Z,21.48
2022-10-14T05:00:48.577Z,27.45
2022-10-14T05:03:27.024Z,26.35
2022-10-14T05:05:54.136Z,22.40
2022-10-14T05:08:21.605Z,23.90
2022-10-14T05:10:52.911Z,20.83
2022-10-14T05:13:34.776Z,24.85
2022-10-14T05:16:06.874Z,26.33
2022-10-14T05:18:34.534Z,24.63
2022-10-14T05:21:07.698Z,28.80
2022-10-14T05:23:53.965Z,30.27
2022-10-14T05:26:20.910Z,26.75
2022-10-14T05:28:51.142Z,31.08
2022-10-14T05:31:19.544Z,26.15
2022-10-14T05:33:54.595Z,26.02
2022-10-14T05:38:50.221Z,21.92
2022-10-14T05:41:21.344Z,19.58
2022-10-14T05:46:16.466Z,32.60
2022-10-14T05:48:48.264Z,27.05
2022-10-14T05:51:15.727Z,35.45
2022-10-14T05:53:43.569Z,29.17
2022-10-14T05:56:15.808Z,24.15
2022-10-14T05:58:42.644Z,27.17
2022-10-14T06:01:11.560Z,27.80
2022-10-14T06:03:41.080Z,25.52
2022-10-14T06:06:18.412Z,27.58
2022-10-14T06:08:45.688Z,32.40
2022-10-14T06:11:12.755Z,21.33
2022-10-14T06:13:39.882Z,29.75
2022-10-14T06:16:09.653Z,31.50
2022-10-14T06:18:37.644Z,28.02
2022-10-14T06:21:05.713Z,33.92
2022-10-14T06:23:34.389Z,31.55
2022-10-14T06:26:04.899Z,26.70
2022-10-14T06:28:31.937Z,26.67
2022-10-14T06:30:58.792Z,28.48
2022-10-14T06:33:27.807Z,22.25
2022-10-14T06:35:54.483Z,23.88
2022-10-14T06:38:21.320Z,29.15
2022-10-14T06:43:19.547Z,29.50
2022-10-14T06:45:46.562Z,26.48
2022-10-14T06:48:13.400Z,18.80
2022-10-14T06:53:10.027Z,25.38
2022-10-14T06:55:36.942Z,21.50
2022-10-14T07:00:30.719Z,28.48
2022-10-14T07:02:59.415Z,26.23
2022-10-14T07:05:26.861Z,25.05
2022-10-14T07:07:54.034Z,25.30
2022-10-14T07:10:21.081Z,26.65
2022-10-14T07:12:48.126Z,36.67
2022-10-14T07:15:15.020Z,32.10
2022-10-14T07:17:41.858Z,29.27
2022-10-14T07:22:38.914Z,29.17
2022-10-14T07:25:06.872Z,28.83
2022-10-14T07:27:34.178Z,31.30
2022-10-14T07:30:01.824Z,32.10
2022-10-14T07:32:28.682Z,32.40
2022-10-14T07:37:23.232Z,31.35
2022-10-14T07:39:50.405Z,36.38
2022-10-14T07:42:17.377Z,31.85
2022-10-14T07:44:45.964Z,30.60
2022-10-14T07:47:13.141Z,36.17
2022-10-14T07:49:39.960Z,31.05
2022-10-14T07:54:33.981Z,29.02
2022-10-14T07:57:01.164Z,29.20
2022-10-14T07:59:28.092Z,32.47
2022-10-14T08:01:56.785Z,33.83
2022-10-14T08:04:24.851Z,31.92
2022-10-14T08:06:52.361Z,27.67
2022-10-14T08:09:19.821Z,23.52
2022-10-14T08:11:47.548Z,28.35
2022-10-14T08:14:14.577Z,30.17
2022-10-14T08:16:41.400Z,25.65
2022-10-14T08:19:14.080Z,25.23
2022-10-14T08:21:42.746Z,28.15
2022-10-14T08:24:10.157Z,20.08
2022-10-14T08:26:41.531Z,20.48
2022-10-14T08:29:11.544Z,22.67
2022-10-14T08:31:38.590Z,19.00
2022-10-14T08:34:05.322Z,20.45
2022-10-14T08:36:32.229Z,22.95
2022-10-14T08:38:59.241Z,16.00
2022-10-14T08:41:51.992Z,23.40
2022-10-14T08:44:34.367Z,16.15
2022-10-14T08:47:03.780Z,18.70
2022-10-14T08:49:52.292Z,19.17
2022-10-14T08:52:37.614Z,17.80
2022-10-14T08:55:32.302Z,20.90
2022-10-14T08:58:11.985Z,17.13
2022-10-14T09:00:42.494Z,19.65
2022-10-14T09:03:36.942Z,19.25
2022-10-14T09:06:13.992Z,19.02
2022-10-14T09:08:44.281Z,21.95
2022-10-14T09:11:15.404Z,16.42
2022-10-14T09:13:46.924Z,19.13
2022-10-14T09:16:20.687Z,13.63
2022-10-14T09:19:01.125Z,21.17
2022-10-14T09:24:37.296Z,16.83
2022-10-14T09:27:16.128Z,17.00
2022-10-14T09:29:48.115Z,15.80
2022-10-14T09:32:23.551Z,17.30
2022-10-14T09:34:51.769Z,16.02
2022-10-14T09:37:29.267Z,18.95
2022-10-14T09:40:01.940Z,22.77
2022-10-14T09:42:51.005Z,19.45
2022-10-14T09:45:22.487Z,15.00
2022-10-14T09:47:59.736Z,12.40
2022-10-14T09:50:30.499Z,16.30
2022-10-14T09:53:03.634Z,13.85
2022-10-14T09:55:31.788Z,11.90
2022-10-14T09:58:18.834Z,18.55
2022-10-14T10:00:47.124Z,14.95
2022-10-14T10:03:32.667Z,14.23
2022-10-14T10:06:03.055Z,13.70
2022-10-14T10:08:29.848Z,13.65
2022-10-14T10:11:03.561Z,12.43
2022-10-14T10:13:47.125Z,15.05
2022-10-14T10:16:24.931Z,12.77
2022-10-14T10:18:55.144Z,11.32
2022-10-14T10:21:27.868Z,10.00
2022-10-14T10:23:58.336Z,11.23
2022-10-14T10:26:33.778Z,12.13
2022-10-14T10:29:03.084Z,10.35
2022-10-14T10:31:44.516Z,10.65
2022-10-14T10:34:30.757Z,11.52
2022-10-14T10:38:00.593Z,11.02
2022-10-14T10:40:31.185Z,8.40
2022-10-14T10:43:20.005Z,12.40
2022-10-14T10:46:08.238Z,8.63
2022-10-14T10:48:47.938Z,9.98
2022-10-14T10:51:39.457Z,10.48
2022-10-14T10:54:07.740Z,10.52
2022-10-14T10:56:52.400Z,11.32
2022-10-14T10:59:28.445Z,7.70
2022-10-14T11:02:17.130Z,8.40
2022-10-14T11:04:47.759Z,12.68
2022-10-14T11:08:06.403Z,9.95
2022-10-14T11:11:25.270Z,7.07
2022-10-14T11:13:56.238Z,9.17
2022-10-14T11:16:51.947Z,12.73
2022-10-14T11:19:30.966Z,10.93
2022-10-14T11:22:15.864Z,8.23
2022-10-14T11:24:58.492Z,9.55
2022-10-14T11:27:37.654Z,11.05
2022-10-14T11:30:37.405Z,10.27
2022-10-14T11:33:15.748Z,10.20
2022-10-14T11:36:04.184Z,7.80
2022-10-14T11:38:43.759Z,8.82
2022-10-14T11:41:35.698Z,8.85
2022-10-14T11:44:32.320Z,8.20
2022-10-14T11:47:05.176Z,9.20
2022-10-14T11:49:45.178Z,8.63
2022-10-14T11:52:19.413Z,12.90
2022-10-14T11:54:52.595Z,9.82
2022-10-14T11:57:22.702Z,9.27
2022-10-14T12:00:48.503Z,10.88
2022-10-14T12:03:34.157Z,13.00
2022-10-14T12:06:16.387Z,11.40
2022-10-14T12:09:00.694Z,15.13
2022-10-14T12:11:36.237Z,12.93
2022-10-14T12:14:20.236Z,11.43
2022-10-14T12:16:48.929Z,11.13
2022-10-14T12:19:24.695Z,12.05
2022-10-14T12:22:16.966Z,13.43
2022-10-14T12:24:52.538Z,13.30
2022-10-14T12:27:21.457Z,10.82
2022-10-14T12:29:51.178Z,8.77
2022-10-14T12:32:21.207Z,10.00
2022-10-14T12:34:54.076Z,10.65
2022-10-14T12:37:35.192Z,13.93
2022-10-14T12:40:02.738Z,10.63
2022-10-14T12:42:31.065Z,11.15
2022-10-14T12:45:19.870Z,9.20
2022-10-14T12:47:47.311Z,11.70
2022-10-14T12:50:18.683Z,12.35
2022-10-14T12:52:57.637Z,11.05
2022-10-14T12:55:30.122Z,15.80
2022-10-14T12:58:02.950Z,13.20
2022-10-14T13:00:34.045Z,10.00
2022-10-14T13:03:03.760Z,14.57
2022-10-14T13:05:43.506Z,11.45
2022-10-14T13:08:15.236Z,10.70
2022-10-14T13:10:47.385Z,11.95
2022-10-14T13:13:44.924Z,9.38
2022-10-14T13:16:21.219Z,12.20
2022-10-14T13:18:58.870Z,15.85
2022-10-14T13:29:20.217Z,11.13
2022-10-14T13:32:04.106Z,11.77
2022-10-14T13:34:34.671Z,11.63
2022-10-14T13:37:05.016Z,12.85
2022-10-14T13:39:33.908Z,10.90
2022-10-14T13:42:01.893Z,12.38
2022-10-14T13:44:29.478Z,10.20
2022-10-14T13:47:00.685Z,11.52
2022-10-14T13:49:40.582Z,11.45
2022-10-14T13:52:18.193Z,13.50
2022-10-14T13:54:45.640Z,15.27
2022-10-14T13:58:07.328Z,13.30
2022-10-14T14:00:59.687Z,11.38
2022-10-14T14:03:31.535Z,11.80
2022-10-14T14:05:59.580Z,13.25
2022-10-14T14:08:39.925Z,13.68
2022-10-14T14:11:17.233Z,12.73
2022-10-14T14:14:01.843Z,13.07
2022-10-14T14:16:38.208Z,12.35
2022-10-14T14:19:10.385Z,16.13
2022-10-14T14:21:38.328Z,12.38
2022-10-14T14:24:16.892Z,14.75
2022-10-14T14:26:54.219Z,13.05
2022-10-14T14:29:28.667Z,12.98
2022-10-14T14:32:13.115Z,13.98
2022-10-14T14:34:44.433Z,15.07
2022-10-14T14:40:27.882Z,14.02
2022-10-14T14:43:04.108Z,14.85
2022-10-14T14:45:35.239Z,11.95
2022-10-14T14:48:07.812Z,13.32
2022-10-14T14:50:42.722Z,13.27
2022-10-14T14:53:19.799Z,16.00
2022-10-14T14:55:55.539Z,15.93
2022-10-14T14:58:34.541Z,14.15
2022-10-14T15:01:02.777Z,12.48
2022-10-14T15:03:34.425Z,14.88
2022-10-14T15:06:04.633Z,14.70
2022-10-14T15:08:34.548Z,12.52
2022-10-14T15:11:01.614Z,12.98
2022-10-14T15:13:39.447Z,14.50
2022-10-14T15:16:07.395Z,17.90
2022-10-14T15:18:37.410Z,14.48
2022-10-14T15:21:17.031Z,14.07
2022-10-14T15:23:47.964Z,12.45
2022-10-14T15:26:29.440Z,14.02
2022-10-14T15:29:08.121Z,13.65
2022-10-14T15:31:36.255Z,13.60
2022-10-14T15:34:03.815Z,14.85
2022-10-14T15:36:34.813Z,14.50
2022-10-14T15:39:02.381Z,13.13
2022-10-14T15:41:29.463Z,10.73
2022-10-14T15:43:56.314Z,14.32
2022-10-14T15:46:41.970Z,10.85
2022-10-14T15:49:25.463Z,18.27
2022-10-14T15:51:52.316Z,16.40
2022-10-14T15:54:20.054Z,13.38
2022-10-14T15:59:16.289Z,14.43
2022-10-14T16:01:45.184Z,18.63
2022-10-14T16:04:24.500Z,16.33
2022-10-14T16:06:55.938Z,14.13
2022-10-14T16:09:24.751Z,17.08
2022-10-14T16:11:57.144Z,17.00
2022-10-14T16:14:27.709Z,15.48
2022-10-14T16:16:55.302Z,15.38
2022-10-14T16:19:22.046Z,13.10
2022-10-14T16:21:50.257Z,15.35
2022-10-14T16:24:21.823Z,13.77
2022-10-14T16:26:49.112Z,11.95
2022-10-14T16:29:17.966Z,13.45
2022-10-14T16:31:49.678Z,13.48
2022-10-14T16:34:18.113Z,15.38
2022-10-14T16:36:45.691Z,15.10
2022-10-14T16:39:13.548Z,15.32
2022-10-14T16:41:40.296Z,15.23
2022-10-14T16:44:07.002Z,13.88
2022-10-14T16:46:52.873Z,18.40
2022-10-14T16:49:19.657Z,15.00
2022-10-14T16:51:46.394Z,16.55
2022-10-14T16:54:13.086Z,18.17
2022-10-14T16:56:52.463Z,13.65
2022-10-14T16:59:20.548Z,23.80
2022-10-14T17:01:47.511Z,14.63
2022-10-14T17:04:19.507Z,13.75
2022-10-14T17:06:50.355Z,20.33
2022-10-14T17:09:18.331Z,18.88
2022-10-14T17:11:47.640Z,18.50
2022-10-14T17:14:17.965Z,19.23
2022-10-14T17:16:46.095Z,17.83
2022-10-14T17:19:12.963Z,16.35
2022-10-14T17:21:39.686Z,19.35
2022-10-14T17:24:07.302Z,19.00
2022-10-14T17:26:34.785Z,21.13
2022-10-14T17:29:02.220Z,19.27
2022-10-14T17:31:30.597Z,13.70
2022-10-14T17:33:59.234Z,15.13
2022-10-14T17:36:28.251Z,16.65
2022-10-14T17:38:55.580Z,15.63
2022-10-14T17:41:24.699Z,15.88
2022-10-14T17:43:52.851Z,14.85
2022-10-14T17:46:23.185Z,13.95
2022-10-14T17:48:52.272Z,12.48
2022-10-14T17:51:24.333Z,19.77
2022-10-14T17:53:56.860Z,12.93
2022-10-14T17:56:24.034Z,15.02
2022-10-14T17:58:59.272Z,14.02
2022-10-14T18:01:37.469Z,16.63
2022-10-14T18:04:14.397Z,16.80
2022-10-14T18:06:44.532Z,15.07
2022-10-14T18:09:12.108Z,12.88
2022-10-14T18:14:28.682Z,17.67
2022-10-14T18:16:55.481Z,15.38
2022-10-14T18:21:48.946Z,14.85
2022-10-14T18:24:15.644Z,13.77
2022-10-14T18:26:42.444Z,17.92
2022-10-14T18:31:37.025Z,16.02
2022-10-14T18:34:03.935Z,16.80
2022-10-14T18:39:02.944Z,16.85
2022-10-14T18:41:30.346Z,13.05
2022-10-14T18:43:59.988Z,17.23
2022-10-14T18:46:30.178Z,17.02
2022-10-14T18:48:58.538Z,12.90
2022-10-14T18:51:28.134Z,17.98
2022-10-14T18:53:59.056Z,14.70
2022-10-14T18:56:31.613Z,13.73
2022-10-14T18:59:05.242Z,15.80
2022-10-14T19:01:32.427Z,14.93
2022-10-14T19:03:59.535Z,14.20
2022-10-14T19:06:26.847Z,12.80
2022-10-14T19:08:54.321Z,16.60
2022-10-14T19:11:23.730Z,11.43
2022-10-14T19:13:53.029Z,15.18
2022-10-14T19:16:28.622Z,20.42
2022-10-14T19:19:00.890Z,17.27
2022-10-14T19:21:30.494Z,12.55
2022-10-14T19:23:58.728Z,14.60
2022-10-14T19:26:28.306Z,19.90
2022-10-14T19:28:56.979Z,15.10
2022-10-14T19:31:26.179Z,15.13
2022-10-14T19:33:54.235Z,18.75
2022-10-14T19:36:22.854Z,10.88
2022-10-14T19:38:57.785Z,19.80
2022-10-14T19:41:29.225Z,14.90
2022-10-14T19:43:57.562Z,14.02
2022-10-14T19:46:27.380Z,12.00
2022-10-14T19:49:07.169Z,16.60
2022-10-14T19:51:35.331Z,11.93
2022-10-14T19:54:02.420Z,10.10
2022-10-14T19:56:29.313Z,11.38
2022-10-14T19:58:57.939Z,7.72
2022-10-14T20:01:27.174Z,6.22
2022-10-14T20:03:54.742Z,6.05
2022-10-14T20:06:22.888Z,7.68
2022-10-14T20:08:49.984Z,6.68
2022-10-14T20:11:19.021Z,6.38
2022-10-14T20:13:47.040Z,8.32
2022-10-14T20:16:14.295Z,6.15
2022-10-14T20:18:41.324Z,11.90
2022-10-14T20:21:10.373Z,7.95
2022-10-14T20:23:38.409Z,5.43
2022-10-14T20:26:13.690Z,5.88
2022-10-14T20:28:40.721Z,4.70
2022-10-14T20:31:13.051Z,5.50
2022-10-14T20:33:39.851Z,3.83
2022-10-14T20:38:38.940Z,4.85
2022-10-14T20:41:06.779Z,4.75
2022-10-14T20:43:33.756Z,3.83
2022-10-14T20:46:00.628Z,4.40
2022-10-14T20:50:54.029Z,10.73
2022-10-14T20:53:20.991Z,3.95
2022-10-14T20:55:47.994Z,5.43
2022-10-14T20:58:14.902Z,4.60
2022-10-14T21:00:41.881Z,8.27
2022-10-14T21:03:08.780Z,4.50
2022-10-14T21:08:04.855Z,8.68
2022-10-14T21:10:31.723Z,4.97
2022-10-14T21:15:26.930Z,4.35
2022-10-14T21:17:53.861Z,6.18
2022-10-14T21:20:20.753Z,6.13
2022-10-14T21:25:14.400Z,8.45
2022-10-14T21:27:41.265Z,7.43
2022-10-14T21:30:08.961Z,5.57
2022-10-14T21:32:35.773Z,12.38
2022-10-14T21:35:02.939Z,6.20
2022-10-14T21:37:29.717Z,7.47
2022-10-14T21:42:23.386Z,9.70
2022-10-14T21:44:50.357Z,10.18
2022-10-14T21:49:44.415Z,11.18
2022-10-14T21:52:17.809Z,9.75
2022-10-14T21:54:44.643Z,9.88
2022-10-14T21:59:38.165Z,11.90
2022-10-14T22:04:34.584Z,11.90
2022-10-14T22:07:05.431Z,8.93
2022-10-14T22:09:32.357Z,9.43
2022-10-14T22:11:59.353Z,16.13
2022-10-14T22:16:54.052Z,9.25
2022-10-14T22:19:21.018Z,8.80
2022-10-14T22:24:15.016Z,8.07
2022-10-14T22:26:42.262Z,7.93
2022-10-14T22:29:14.416Z,8.27
2022-10-14T22:31:41.782Z,7.18
2022-10-14T22:34:11.382Z,6.72
2022-10-14T22:36:38.516Z,5.03
2022-10-14T22:39:14.213Z,6.40
2022-10-14T22:41:41.260Z,5.95
2022-10-14T22:44:09.152Z,4.03
2022-10-14T22:46:38.468Z,7.15
2022-10-14T22:49:05.599Z,3.47
2022-10-14T22:51:35.139Z,6.13
2022-10-14T22:54:02.595Z,6.05
2022-10-14T22:56:30.675Z,7.78
2022-10-14T22:59:08.042Z,4.68
2022-10-14T23:04:02.742Z,4.45
2022-10-14T23:06:31.045Z,5.43
2022-10-14T23:09:00.594Z,5.45
2022-10-14T23:11:29.703Z,5.80
2022-10-14T23:14:00.215Z,6.25
2022-10-14T23:16:29.916Z,5.63
2022-10-14T23:18:59.120Z,5.97
2022-10-14T23:21:29.760Z,3.92
2022-10-14T23:23:58.695Z,5.65
2022-10-14T23:26:28.084Z,6.32
2022-10-14T23:28:57.625Z,9.20
2022-10-14T23:31:27.684Z,5.85
2022-10-14T23:33:57.280Z,6.32
2022-10-14T23:36:24.223Z,5.68
2022-10-14T23:41:22.940Z,8.55
2022-10-14T23:43:51.044Z,6.40
2022-10-14T23:46:18.999Z,8.80
2022-10-14T23:48:51.563Z,7.57
2022-10-14T23:51:27.944Z,8.95
2022-10-14T23:56:21.940Z,9.38
2022-10-14T23:58:48.790Z,6.13
